createdAt,value
2017-11-12T00:01:55.709Z,8.26
2017-11-12T00:04:26.267Z,8.27
2017-11-12T00:06:56.698Z,8.27
2017-11-12T00:09:28.298Z,8.29
2017-11-12T00:11:59.210Z,8.26
2017-11-12T00:14:30.640Z,8.27
2017-11-12T00:17:00.828Z,8.30
2017-11-12T00:19:30.922Z,8.26
2017-11-12T00:22:00.846Z,8.40
2017-11-12T00:24:31.243Z,8.35
2017-11-12T00:27:01.537Z,8.33
2017-11-12T00:29:32.109Z,8.39
2017-11-12T00:32:02.047Z,8.45
2017-11-12T00:34:32.061Z,8.32
2017-11-12T00:37:02.756Z,8.37
2017-11-12T00:39:47.665Z,8.40
2017-11-12T00:42:17.842Z,8.43
2017-11-12T00:44:47.873Z,8.43
2017-11-12T00:47:17.707Z,8.40
2017-11-12T00:49:48.129Z,8.43
2017-11-12T00:52:18.076Z,8.39
2017-11-12T00:54:48.739Z,8.43
2017-11-12T00:57:19.129Z,8.35
2017-11-12T00:59:53.412Z,8.36
2017-11-12T01:02:25.642Z,8.35
2017-11-12T01:04:56.403Z,8.35
2017-11-12T01:07:35.700Z,8.37
2017-11-12T01:10:05.307Z,8.41
2017-11-12T01:12:35.069Z,8.44
2017-11-12T01:15:06.271Z,8.48
2017-11-12T01:17:36.180Z,8.38
2017-11-12T01:20:06.234Z,8.48
2017-11-12T01:22:36.502Z,8.43
2017-11-12T01:25:07.523Z,8.38
2017-11-12T01:27:37.489Z,8.43
2017-11-12T01:30:07.850Z,8.49
2017-11-12T01:32:38.163Z,8.45
2017-11-12T01:35:11.607Z,8.44
2017-11-12T01:37:42.498Z,8.45
2017-11-12T01:40:13.243Z,8.42
2017-11-12T01:42:43.580Z,8.39
2017-11-12T01:45:21.436Z,8.39
2017-11-12T01:47:51.333Z,8.38
2017-11-12T01:50:21.268Z,8.36
2017-11-12T01:52:51.532Z,8.41
2017-11-12T01:55:21.444Z,8.37
2017-11-12T01:57:51.556Z,8.37
2017-11-12T02:00:21.246Z,8.33
2017-11-12T02:02:50.605Z,8.30
2017-11-12T02:05:20.616Z,8.32
2017-11-12T02:07:50.924Z,8.26
2017-11-12T02:10:22.152Z,8.22
2017-11-12T02:12:53.970Z,8.15
2017-11-12T02:15:25.195Z,8.15
2017-11-12T02:17:55.702Z,8.11
2017-11-12T02:20:25.643Z,8.06
2017-11-12T02:22:55.766Z,8.10
2017-11-12T02:25:26.142Z,8.06
2017-11-12T02:27:57.273Z,8.06
2017-11-12T02:30:27.539Z,8.12
2017-11-12T02:32:57.891Z,8.18
2017-11-12T02:35:28.953Z,8.17
2017-11-12T02:37:59.585Z,8.20
2017-11-12T02:40:29.411Z,8.13
2017-11-12T02:43:02.434Z,8.09
2017-11-12T02:45:32.304Z,8.10
2017-11-12T02:48:02.672Z,8.11
2017-11-12T02:50:32.853Z,8.13
2017-11-12T02:53:04.207Z,8.10
2017-11-12T02:55:35.192Z,7.88
2017-11-12T03:03:17.640Z,7.56
2017-11-12T03:08:22.881Z,7.47
2017-11-12T03:10:55.136Z,7.49
2017-11-12T03:13:25.249Z,7.43
2017-11-12T03:15:56.091Z,7.44
2017-11-12T03:18:26.241Z,7.42
2017-11-12T03:20:56.479Z,7.29
2017-11-12T03:23:27.245Z,7.16
2017-11-12T03:25:59.562Z,7.00
2017-11-12T03:28:29.972Z,6.97
2017-11-12T03:30:59.913Z,6.88
2017-11-12T03:33:31.341Z,6.96
2017-11-12T03:36:02.223Z,6.85
2017-11-12T03:38:32.676Z,6.75
2017-11-12T03:41:04.255Z,6.70
2017-11-12T03:43:34.208Z,6.69
2017-11-12T03:46:04.516Z,6.82
2017-11-12T03:48:34.110Z,6.71
2017-11-12T03:51:04.101Z,6.61
2017-11-12T03:53:34.128Z,6.64
2017-11-12T03:56:04.382Z,6.66
2017-11-12T03:58:34.536Z,6.68
2017-11-12T04:01:04.788Z,6.60
2017-11-12T04:03:34.809Z,6.61
2017-11-12T04:06:08.566Z,6.54
2017-11-12T04:08:39.241Z,6.57
2017-11-12T04:11:09.241Z,6.60
2017-11-12T04:13:39.130Z,6.54
2017-11-12T04:16:09.044Z,6.49
2017-11-12T04:18:39.099Z,6.41
2017-11-12T04:21:10.091Z,6.39
2017-11-12T04:23:40.017Z,6.68
2017-11-12T04:26:10.319Z,6.69
2017-11-12T04:28:40.197Z,6.63
2017-11-12T04:31:11.144Z,6.57
2017-11-12T04:33:45.719Z,6.58
2017-11-12T04:36:15.828Z,6.49
2017-11-12T04:38:47.397Z,6.62
2017-11-12T04:41:17.361Z,6.66
2017-11-12T04:43:47.215Z,6.61
2017-11-12T04:46:19.473Z,6.70
2017-11-12T04:48:49.484Z,6.71
2017-11-12T04:51:19.378Z,6.71
2017-11-12T04:53:49.464Z,6.78
2017-11-12T04:56:19.873Z,6.85
2017-11-12T04:58:50.227Z,6.86
2017-11-12T05:01:19.802Z,6.88
2017-11-12T05:03:50.145Z,6.91
2017-11-12T05:06:20.332Z,6.90
2017-11-12T05:08:52.090Z,6.92
2017-11-12T05:11:22.451Z,6.99
2017-11-12T05:13:52.338Z,6.98
2017-11-12T05:16:23.103Z,7.00
2017-11-12T05:18:53.793Z,6.99
2017-11-12T05:21:25.208Z,6.98
2017-11-12T05:23:55.351Z,6.95
2017-11-12T05:26:25.611Z,6.93
2017-11-12T05:28:55.531Z,6.90
2017-11-12T05:31:25.512Z,6.89
2017-11-12T05:33:56.228Z,6.88
2017-11-12T05:36:26.312Z,6.85
2017-11-12T05:39:00.336Z,6.84
2017-11-12T05:41:30.908Z,6.78
2017-11-12T05:44:01.886Z,6.89
2017-11-12T05:46:32.291Z,6.88
2017-11-12T05:49:03.227Z,6.81
2017-11-12T05:51:34.338Z,6.89
2017-11-12T05:54:04.556Z,7.01
2017-11-12T05:56:39.491Z,6.99
2017-11-12T05:59:09.756Z,6.94
2017-11-12T06:01:45.470Z,6.90
2017-11-12T06:04:15.379Z,6.87
2017-11-12T06:06:47.627Z,6.80
2017-11-12T06:09:18.879Z,6.87
2017-11-12T06:11:50.204Z,6.81
2017-11-12T06:14:20.310Z,6.75
2017-11-12T06:16:50.263Z,6.81
2017-11-12T06:21:53.856Z,6.65
2017-11-12T06:24:24.197Z,6.69
2017-11-12T06:26:54.540Z,6.77
2017-11-12T06:29:24.093Z,6.76
2017-11-12T06:31:54.008Z,6.78
2017-11-12T06:34:23.753Z,6.74
2017-11-12T06:36:53.564Z,6.74
2017-11-12T06:39:23.288Z,6.76
2017-11-12T06:41:53.443Z,6.76
2017-11-12T06:44:23.321Z,6.77
2017-11-12T06:46:53.091Z,6.71
2017-11-12T06:49:22.886Z,6.75
2017-11-12T06:51:52.661Z,6.76
2017-11-12T06:54:22.389Z,6.75
2017-11-12T06:56:52.815Z,6.79
2017-11-12T06:59:22.904Z,6.81
2017-11-12T07:01:53.118Z,6.82
2017-11-12T07:04:23.022Z,6.84
2017-11-12T07:06:53.344Z,6.79
2017-11-12T07:09:23.694Z,6.79
2017-11-12T07:11:53.915Z,6.71
2017-11-12T07:14:23.671Z,6.67
2017-11-12T07:16:53.137Z,6.64
2017-11-12T07:19:23.454Z,6.62
2017-11-12T07:21:53.766Z,6.71
2017-11-12T07:24:24.320Z,6.78
2017-11-12T07:26:54.627Z,6.79
2017-11-12T07:29:25.776Z,6.84
2017-11-12T07:31:55.941Z,6.93
2017-11-12T07:34:25.938Z,6.92
2017-11-12T07:36:55.954Z,6.84
2017-11-12T07:39:25.871Z,6.78
2017-11-12T07:41:55.749Z,6.79
2017-11-12T07:44:26.479Z,6.77
2017-11-12T07:46:56.979Z,6.86
2017-11-12T07:49:27.419Z,6.81
2017-11-12T07:51:57.426Z,6.86
2017-11-12T07:54:27.946Z,6.87
2017-11-12T07:56:57.746Z,6.77
2017-11-12T07:59:29.606Z,6.73
2017-11-12T08:02:04.337Z,6.77
2017-11-12T08:04:34.158Z,6.82
2017-11-12T08:07:04.351Z,6.74
2017-11-12T08:09:34.409Z,6.87
2017-11-12T08:12:04.681Z,6.94
2017-11-12T08:14:34.769Z,6.97
2017-11-12T08:17:04.611Z,6.94
2017-11-12T08:19:34.720Z,6.87
2017-11-12T08:22:04.573Z,6.90
2017-11-12T08:24:34.402Z,6.84
2017-11-12T08:27:04.410Z,6.90
2017-11-12T08:29:34.704Z,6.96
2017-11-12T08:32:04.948Z,7.01
2017-11-12T08:34:35.293Z,7.15
2017-11-12T08:37:05.451Z,7.27
2017-11-12T08:39:36.123Z,7.36
2017-11-12T08:42:05.778Z,7.36
2017-11-12T08:44:36.687Z,7.42
2017-11-12T08:47:06.905Z,7.44
2017-11-12T08:49:37.569Z,7.44
2017-11-12T08:52:07.366Z,7.43
2017-11-12T08:54:37.370Z,7.59
2017-11-12T08:57:07.336Z,7.54
2017-11-12T08:59:37.767Z,7.49
2017-11-12T09:02:08.073Z,7.45
2017-11-12T09:04:37.902Z,7.36
2017-11-12T09:07:07.787Z,7.44
2017-11-12T09:09:37.565Z,7.53
2017-11-12T09:12:07.395Z,7.65
2017-11-12T09:14:37.515Z,7.75
2017-11-12T09:17:07.379Z,7.93
2017-11-12T09:19:37.458Z,8.14
2017-11-12T09:22:07.571Z,8.07
2017-11-12T09:24:42.272Z,7.90
2017-11-12T09:27:12.116Z,7.93
2017-11-12T09:29:42.105Z,7.81
2017-11-12T09:32:11.894Z,7.74
2017-11-12T09:34:41.643Z,7.87
2017-11-12T09:37:11.422Z,7.85
2017-11-12T09:39:41.485Z,7.93
2017-11-12T09:42:11.308Z,7.89
2017-11-12T09:44:41.910Z,7.57
2017-11-12T09:47:11.879Z,7.74
2017-11-12T09:49:41.825Z,7.77
2017-11-12T09:52:11.701Z,7.86
2017-11-12T09:54:41.437Z,8.02
2017-11-12T09:57:11.205Z,8.07
2017-11-12T09:59:40.949Z,8.10
2017-11-12T10:02:10.706Z,8.08
2017-11-12T10:04:40.446Z,8.09
2017-11-12T10:07:10.200Z,8.11
2017-11-12T10:09:39.933Z,8.15
2017-11-12T10:12:09.943Z,8.41
2017-11-12T10:14:40.957Z,8.47
2017-11-12T10:17:10.709Z,8.84
2017-11-12T10:19:40.475Z,9.06
2017-11-12T10:22:10.287Z,9.28
2017-11-12T10:24:40.050Z,9.54
2017-11-12T10:27:10.169Z,9.62
2017-11-12T10:29:40.400Z,9.39
2017-11-12T10:32:10.140Z,9.43
2017-11-12T10:34:39.881Z,9.43
2017-11-12T10:37:10.014Z,9.27
2017-11-12T10:39:39.850Z,9.11
2017-11-12T10:42:09.587Z,9.22
2017-11-12T10:44:39.462Z,9.34
2017-11-12T10:47:09.206Z,9.44
2017-11-12T10:49:38.775Z,8.93
2017-11-12T10:52:08.671Z,8.86
2017-11-12T10:54:38.473Z,8.40
2017-11-12T10:57:08.241Z,8.35
2017-11-12T10:59:37.983Z,8.52
2017-11-12T11:02:08.069Z,8.42
2017-11-12T11:04:37.894Z,8.43
2017-11-12T11:07:07.651Z,8.40
2017-11-12T11:09:37.687Z,8.46
2017-11-12T11:12:07.457Z,8.17
2017-11-12T11:14:37.217Z,8.25
2017-11-12T11:17:07.618Z,8.31
2017-11-12T11:19:37.339Z,8.43
2017-11-12T11:22:06.600Z,8.53
2017-11-12T11:24:36.398Z,8.64
2017-11-12T11:27:06.274Z,8.40
2017-11-12T11:29:36.146Z,8.49
2017-11-12T11:32:06.446Z,8.54
2017-11-12T11:34:38.341Z,8.69
2017-11-12T11:37:09.167Z,8.75
2017-11-12T11:39:38.977Z,8.91
2017-11-12T11:42:08.764Z,9.11
2017-11-12T11:44:38.557Z,9.13
2017-11-12T11:47:08.513Z,8.96
2017-11-12T11:49:38.549Z,8.86
2017-11-12T11:52:08.500Z,8.73
2017-11-12T11:54:38.251Z,8.57
2017-11-12T11:57:08.307Z,8.36
2017-11-12T11:59:38.966Z,8.22
2017-11-12T12:02:08.790Z,8.12
2017-11-12T12:04:38.924Z,8.00
2017-11-12T12:07:08.699Z,8.26
2017-11-12T12:09:38.819Z,8.11
2017-11-12T12:12:08.707Z,8.19
2017-11-12T12:14:38.534Z,8.24
2017-11-12T12:17:08.356Z,8.09
2017-11-12T12:19:38.206Z,8.07
2017-11-12T12:22:08.143Z,8.27
2017-11-12T12:24:38.044Z,8.22
2017-11-12T12:27:07.866Z,8.39
2017-11-12T12:29:37.662Z,8.42
2017-11-12T12:32:07.414Z,8.49
2017-11-12T12:34:37.150Z,8.26
2017-11-12T12:37:06.871Z,8.25
2017-11-12T12:39:36.673Z,8.26
2017-11-12T12:42:06.426Z,8.23
2017-11-12T12:44:40.572Z,8.30
2017-11-12T12:49:47.584Z,8.57
2017-11-12T12:52:17.648Z,8.16
2017-11-12T12:54:47.960Z,7.87
2017-11-12T12:57:17.734Z,8.18
2017-11-12T12:59:47.728Z,7.99
2017-11-12T13:02:17.539Z,7.89
2017-11-12T13:04:49.477Z,8.07
2017-11-12T13:07:19.304Z,7.85
2017-11-12T13:09:49.147Z,7.46
2017-11-12T13:12:18.900Z,7.60
2017-11-12T13:14:48.487Z,7.68
2017-11-12T13:17:18.293Z,7.77
2017-11-12T13:19:48.056Z,7.85
2017-11-12T13:22:18.042Z,7.89
2017-11-12T13:24:47.781Z,7.85
2017-11-12T13:27:17.580Z,7.57
2017-11-12T13:29:47.571Z,7.71
2017-11-12T13:32:17.396Z,7.58
2017-11-12T13:34:46.628Z,7.61
2017-11-12T13:37:16.379Z,7.77
2017-11-12T13:39:45.857Z,7.82
2017-11-12T13:42:15.598Z,7.81
2017-11-12T13:44:45.347Z,7.90
2017-11-12T13:47:15.087Z,7.84
2017-11-12T13:49:44.977Z,7.82
2017-11-12T13:52:14.863Z,7.89
2017-11-12T13:54:44.601Z,7.82
2017-11-12T13:57:14.499Z,7.73
2017-11-12T13:59:44.225Z,7.74
2017-11-12T14:02:15.166Z,7.63
2017-11-12T14:04:44.579Z,7.55
2017-11-12T14:07:14.354Z,7.56
2017-11-12T14:09:44.119Z,7.49
2017-11-12T14:12:13.886Z,7.59
2017-11-12T14:14:43.643Z,7.31
2017-11-12T14:17:13.574Z,7.41
2017-11-12T14:19:45.057Z,7.18
2017-11-12T14:22:15.059Z,7.34
2017-11-12T14:24:44.817Z,7.25
2017-11-12T14:27:14.591Z,7.21
2017-11-12T14:29:44.334Z,7.03
2017-11-12T14:32:14.097Z,7.03
2017-11-12T14:34:43.916Z,6.90
2017-11-12T14:37:16.911Z,6.86
2017-11-12T14:39:47.685Z,6.84
2017-11-12T14:42:17.691Z,6.92
2017-11-12T14:44:47.427Z,6.89
2017-11-12T14:47:17.187Z,6.83
2017-11-12T14:49:46.950Z,6.91
2017-11-12T14:52:16.691Z,6.85
2017-11-12T14:54:46.440Z,6.80
2017-11-12T14:57:16.243Z,6.66
2017-11-12T14:59:46.253Z,6.64
2017-11-12T15:02:16.061Z,6.70
2017-11-12T15:04:46.762Z,6.70
2017-11-12T15:07:16.535Z,6.71
2017-11-12T15:09:46.363Z,6.76
2017-11-12T15:12:16.110Z,6.78
2017-11-12T15:14:45.667Z,6.85
2017-11-12T15:17:15.426Z,6.84
2017-11-12T15:19:45.191Z,6.95
2017-11-12T15:22:15.619Z,6.86
2017-11-12T15:24:45.406Z,6.94
2017-11-12T15:27:15.357Z,6.90
2017-11-12T15:29:45.100Z,6.85
2017-11-12T15:32:15.038Z,6.75
2017-11-12T15:34:44.822Z,6.74
2017-11-12T15:37:14.547Z,6.78
2017-11-12T15:39:44.907Z,6.78
2017-11-12T15:42:14.674Z,6.78
2017-11-12T15:44:44.431Z,6.80
2017-11-12T15:47:14.015Z,6.84
2017-11-12T15:49:43.798Z,6.74
2017-11-12T15:52:13.540Z,6.70
2017-11-12T15:54:43.362Z,6.76
2017-11-12T15:57:16.961Z,6.87
2017-11-12T15:59:46.696Z,6.70
2017-11-12T16:02:16.453Z,6.61
2017-11-12T16:04:46.219Z,6.71
2017-11-12T16:07:16.101Z,6.73
2017-11-12T16:09:47.131Z,6.62
2017-11-12T16:12:16.928Z,6.57
2017-11-12T16:14:46.865Z,6.63
2017-11-12T16:17:16.495Z,6.69
2017-11-12T16:19:46.158Z,6.58
2017-11-12T16:22:15.963Z,6.58
2017-11-12T16:24:45.794Z,6.61
2017-11-12T16:27:15.642Z,6.57
2017-11-12T16:29:45.902Z,6.64
2017-11-12T16:32:15.825Z,6.46
2017-11-12T16:34:45.556Z,6.36
2017-11-12T16:37:15.424Z,6.43
2017-11-12T16:39:45.241Z,6.38
2017-11-12T16:42:14.791Z,6.44
2017-11-12T16:44:44.541Z,6.35
2017-11-12T16:47:14.417Z,6.35
2017-11-12T16:49:44.049Z,6.23
2017-11-12T16:52:13.809Z,6.22
2017-11-12T16:54:43.580Z,6.15
2017-11-12T16:57:13.134Z,6.20
2017-11-12T16:59:43.409Z,6.23
2017-11-12T17:02:13.201Z,6.18
2017-11-12T17:04:42.971Z,6.18
2017-11-12T17:07:12.762Z,6.18
2017-11-12T17:09:42.567Z,6.23
2017-11-12T17:12:12.396Z,6.28
2017-11-12T17:14:46.356Z,6.26
2017-11-12T17:17:16.136Z,6.23
2017-11-12T17:19:46.483Z,6.21
2017-11-12T17:22:16.279Z,6.20
2017-11-12T17:24:46.108Z,6.22
2017-11-12T17:27:15.870Z,6.20
2017-11-12T17:29:45.706Z,6.21
2017-11-12T17:32:15.524Z,6.25
2017-11-12T17:34:45.334Z,6.15
2017-11-12T17:37:15.128Z,6.19
2017-11-12T17:39:45.205Z,6.18
2017-11-12T17:42:15.066Z,6.27
2017-11-12T17:44:44.869Z,6.32
2017-11-12T17:47:14.652Z,6.29
2017-11-12T17:49:44.418Z,6.33
2017-11-12T17:52:14.266Z,6.36
2017-11-12T17:54:44.045Z,6.43
2017-11-12T17:57:13.781Z,6.36
2017-11-12T17:59:43.561Z,6.37
2017-11-12T18:02:13.379Z,6.35
2017-11-12T18:04:43.186Z,6.52
2017-11-12T18:07:13.011Z,6.60
2017-11-12T18:09:42.759Z,6.57
2017-11-12T18:12:12.585Z,6.54
2017-11-12T18:14:42.352Z,6.53
2017-11-12T18:17:12.142Z,6.54
2017-11-12T18:19:41.902Z,6.54
2017-11-12T18:22:11.680Z,6.55
2017-11-12T18:24:41.434Z,6.52
2017-11-12T18:27:11.212Z,6.52
2017-11-12T18:29:41.061Z,6.53
2017-11-12T18:32:10.888Z,6.58
2017-11-12T18:34:40.761Z,6.58
2017-11-12T18:37:10.639Z,6.61
2017-11-12T18:39:40.031Z,6.64
2017-11-12T18:42:09.650Z,6.73
2017-11-12T18:44:39.460Z,6.73
2017-11-12T18:47:09.782Z,6.75
2017-11-12T18:49:39.307Z,6.78
2017-11-12T18:52:09.751Z,6.76
2017-11-12T18:54:39.559Z,6.78
2017-11-12T18:57:11.231Z,6.76
2017-11-12T18:59:41.219Z,6.80
2017-11-12T19:05:24.833Z,6.71
2017-11-12T19:07:58.114Z,6.69
2017-11-12T19:10:28.214Z,6.63
2017-11-12T19:12:57.933Z,6.60
2017-11-12T19:15:27.641Z,6.53
2017-11-12T19:18:00.843Z,6.47
2017-11-12T19:20:40.381Z,6.40
2017-11-12T19:23:15.368Z,6.35
2017-11-12T19:25:46.220Z,6.33
2017-11-12T19:28:17.124Z,6.30
2017-11-12T19:30:47.167Z,6.23
2017-11-12T19:33:16.729Z,6.21
2017-11-12T19:35:47.222Z,6.15
2017-11-12T19:38:18.054Z,6.15
2017-11-12T19:40:48.029Z,6.14
2017-11-12T19:43:17.809Z,6.09
2017-11-12T19:45:47.710Z,6.09
2017-11-12T19:48:21.680Z,6.02
2017-11-12T19:50:51.632Z,5.99
2017-11-12T19:53:21.410Z,5.92
2017-11-12T19:55:51.622Z,5.85
2017-11-12T19:58:21.546Z,5.79
2017-11-12T20:00:51.414Z,5.84
2017-11-12T20:03:21.267Z,5.73
2017-11-12T20:05:51.205Z,5.76
2017-11-12T20:08:21.049Z,5.83
2017-11-12T20:10:50.880Z,5.91
2017-11-12T20:13:20.660Z,5.79
2017-11-12T20:15:50.462Z,5.76
2017-11-12T20:18:20.284Z,5.67
2017-11-12T20:20:49.974Z,5.66
2017-11-12T20:23:19.864Z,5.62
2017-11-12T20:25:49.907Z,5.73
2017-11-12T20:28:19.994Z,5.68
2017-11-12T20:30:50.050Z,5.68
2017-11-12T20:33:20.023Z,5.69
2017-11-12T20:35:50.036Z,5.66
2017-11-12T20:38:19.968Z,5.74
2017-11-12T20:40:49.889Z,5.59
2017-11-12T20:43:19.778Z,5.75
2017-11-12T20:45:49.624Z,5.65
2017-11-12T20:48:20.315Z,5.58
2017-11-12T20:50:50.334Z,5.73
2017-11-12T20:53:20.015Z,5.71
2017-11-12T20:55:49.794Z,5.69
2017-11-12T20:58:19.587Z,5.54
2017-11-12T21:00:50.804Z,5.62
2017-11-12T21:03:31.203Z,5.59
2017-11-12T21:06:00.759Z,5.60
2017-11-12T21:08:30.402Z,5.62
2017-11-12T21:11:00.301Z,5.63
2017-11-12T21:13:29.975Z,5.59
2017-11-12T21:15:59.827Z,5.44
2017-11-12T21:18:29.624Z,5.40
2017-11-12T21:20:59.389Z,5.32
2017-11-12T21:23:30.479Z,5.21
2017-11-12T21:26:00.463Z,5.24
2017-11-12T21:31:36.267Z,5.18
2017-11-12T21:34:10.528Z,5.21
2017-11-12T21:36:40.100Z,5.25
2017-11-12T21:39:09.744Z,5.24
2017-11-12T21:41:39.430Z,5.24
2017-11-12T21:44:08.970Z,5.20
2017-11-12T21:46:39.043Z,5.85
2017-11-12T21:49:09.228Z,6.26
2017-11-12T21:51:39.448Z,6.59
2017-11-12T21:54:09.661Z,6.71
2017-11-12T21:56:39.702Z,6.85
2017-11-12T21:59:09.833Z,7.17
2017-11-12T22:01:40.108Z,7.03
2017-11-12T22:04:19.431Z,6.91
2017-11-12T22:06:55.453Z,6.66
2017-11-12T22:09:25.664Z,5.98
2017-11-12T22:11:56.136Z,5.86
2017-11-12T22:14:26.540Z,5.70
2017-11-12T22:16:58.023Z,5.52
2017-11-12T22:19:28.222Z,5.34
2017-11-12T22:21:58.641Z,5.32
2017-11-12T22:24:28.583Z,5.24
2017-11-12T22:26:58.517Z,5.19
2017-11-12T22:29:30.087Z,5.14
2017-11-12T22:32:00.121Z,5.12
2017-11-12T22:34:29.868Z,5.09
2017-11-12T22:36:59.473Z,5.06
2017-11-12T22:39:29.194Z,5.03
2017-11-12T22:41:58.960Z,4.96
2017-11-12T22:44:28.712Z,4.98
2017-11-12T22:46:58.469Z,4.97
2017-11-12T22:49:28.203Z,4.94
2017-11-12T22:51:57.993Z,4.92
2017-11-12T22:54:27.758Z,4.90
2017-11-12T22:56:57.507Z,4.86
2017-11-12T22:59:28.049Z,4.87
2017-11-12T23:01:57.800Z,4.83
2017-11-12T23:04:27.629Z,4.77
2017-11-12T23:06:57.368Z,4.73
2017-11-12T23:09:27.096Z,4.72
2017-11-12T23:11:56.853Z,4.71
2017-11-12T23:14:26.617Z,4.72
2017-11-12T23:16:56.170Z,4.74
2017-11-12T23:19:25.764Z,4.77
2017-11-12T23:21:55.535Z,4.69
2017-11-12T23:24:25.260Z,4.65
2017-11-12T23:26:55.023Z,4.65
2017-11-12T23:29:24.785Z,4.61
2017-11-12T23:31:54.780Z,4.57
2017-11-12T23:34:24.531Z,4.50
2017-11-12T23:36:54.259Z,4.43
2017-11-12T23:39:24.014Z,4.39
2017-11-12T23:41:53.745Z,4.41
2017-11-12T23:44:23.510Z,4.44
2017-11-12T23:46:53.250Z,4.46
2017-11-12T23:49:22.976Z,4.47
2017-11-12T23:51:52.773Z,4.42
2017-11-12T23:54:22.528Z,4.44
2017-11-12T23:56:52.372Z,4.46
2017-11-12T23:59:22.110Z,4.46
